createdAt,value
2018-12-10T00:00:09.375Z,99931.73
2018-12-10T00:03:20.794Z,99941.46
2018-12-10T00:06:26.062Z,99939.66
2018-12-10T00:09:29.304Z,99937.86
2018-12-10T00:12:32.509Z,99945.80
2018-12-10T00:15:35.744Z,99939.27
2018-12-10T00:18:39.073Z,99942.77
2018-12-10T00:21:42.423Z,99930.52
2018-12-10T00:24:45.969Z,99938.48
2018-12-10T00:27:49.288Z,99948.47
2018-12-10T00:30:52.609Z,99954.08
2018-12-10T00:33:55.833Z,99960.66
2018-12-10T00:36:59.088Z,99967.27
2018-12-10T00:40:02.461Z,99971.69
2018-12-10T00:43:05.838Z,99970.89
2018-12-10T00:46:09.088Z,99978.70
2018-12-10T00:49:12.305Z,99993.19
2018-12-10T00:52:15.548Z,99991.91
2018-12-10T00:55:18.845Z,99994.98
2018-12-10T00:58:22.106Z,99994.95
2018-12-10T01:01:25.476Z,99994.02
2018-12-10T01:04:28.685Z,100002.87
2018-12-10T01:07:31.913Z,100016.84
2018-12-10T01:10:35.360Z,100018.20
2018-12-10T01:13:38.595Z,100022.54
2018-12-10T01:16:42.138Z,100027.02
2018-12-10T01:19:45.468Z,100021.26
2018-12-10T01:22:48.726Z,100031.33
2018-12-10T01:25:51.972Z,100031.37
2018-12-10T01:28:55.217Z,100036.25
2018-12-10T01:31:58.470Z,100030.11
2018-12-10T01:35:01.825Z,100024.42
2018-12-10T01:38:05.396Z,100032.74
2018-12-10T01:41:08.696Z,100036.66
2018-12-10T01:44:12.173Z,100036.25
2018-12-10T01:47:15.399Z,100046.78
2018-12-10T01:50:18.645Z,100053.35
2018-12-10T01:53:21.893Z,100059.86
2018-12-10T01:56:25.332Z,100070.89
2018-12-10T01:59:28.557Z,100076.98
2018-12-10T02:02:31.777Z,100080.08
2018-12-10T02:05:35.011Z,100087.02
2018-12-10T02:08:38.348Z,100088.81
2018-12-10T02:11:41.579Z,100104.11
2018-12-10T02:14:44.928Z,100105.93
2018-12-10T02:17:48.457Z,100101.99
2018-12-10T02:20:51.716Z,100108.08
2018-12-10T02:23:54.977Z,100100.63
2018-12-10T02:26:58.276Z,100102.84
2018-12-10T02:30:01.540Z,100111.09
2018-12-10T02:33:05.164Z,100108.53
2018-12-10T02:36:08.392Z,100110.31
2018-12-10T02:39:11.620Z,100118.18
2018-12-10T02:42:14.885Z,100113.40
2018-12-10T02:45:18.146Z,100122.09
2018-12-10T02:48:21.605Z,100131.30
2018-12-10T02:51:25.232Z,100124.28
2018-12-10T02:54:28.644Z,100124.78
2018-12-10T02:57:31.914Z,100134.81
2018-12-10T03:00:35.381Z,100121.67
2018-12-10T03:03:38.642Z,100125.67
2018-12-10T03:06:41.885Z,100134.00
2018-12-10T03:09:45.121Z,100134.43
2018-12-10T03:12:48.387Z,100133.53
2018-12-10T03:15:51.594Z,100137.94
2018-12-10T03:18:55.089Z,100138.38
2018-12-10T03:21:58.373Z,100143.56
2018-12-10T03:25:01.716Z,100148.85
2018-12-10T03:28:05.348Z,100147.09
2018-12-10T03:31:11.532Z,100147.10
2018-12-10T03:34:15.028Z,100156.73
2018-12-10T03:37:18.510Z,100158.47
2018-12-10T03:40:21.754Z,100158.91
2018-12-10T03:43:25.003Z,100164.16
2018-12-10T03:46:28.259Z,100167.66
2018-12-10T03:49:31.510Z,100169.88
2018-12-10T03:52:34.730Z,100169.86
2018-12-10T03:55:38.005Z,100158.47
2018-12-10T03:58:41.319Z,100172.47
2018-12-10T04:01:44.583Z,100181.70
2018-12-10T04:04:48.039Z,100169.86
2018-12-10T04:07:51.511Z,100175.13
2018-12-10T04:10:54.768Z,100183.01
2018-12-10T04:13:57.998Z,100173.36
2018-12-10T04:17:01.237Z,100184.34
2018-12-10T04:20:05.179Z,100188.70
2018-12-10T04:23:09.466Z,100182.59
2018-12-10T04:26:14.704Z,100185.63
2018-12-10T04:29:18.005Z,100188.69
2018-12-10T04:32:21.249Z,100193.05
2018-12-10T04:35:24.535Z,100196.10
2018-12-10T04:38:28.021Z,100195.70
2018-12-10T04:41:31.255Z,100201.39
2018-12-10T04:44:34.636Z,100209.25
2018-12-10T04:47:38.018Z,100199.19
2018-12-10T04:50:44.272Z,100214.06
2018-12-10T04:53:47.521Z,100214.08
2018-12-10T04:56:50.799Z,100227.63
2018-12-10T04:59:54.324Z,100221.49
2018-12-10T05:02:57.654Z,100222.81
2018-12-10T05:06:00.961Z,100233.73
2018-12-10T05:09:06.482Z,100232.43
2018-12-10T05:12:10.716Z,100232.44
2018-12-10T05:15:14.064Z,100257.36
2018-12-10T05:18:17.324Z,100248.62
2018-12-10T05:21:20.556Z,100247.73
2018-12-10T05:24:23.823Z,100253.86
2018-12-10T05:27:27.140Z,100258.27
2018-12-10T05:30:30.582Z,100260.41
2018-12-10T05:33:33.833Z,100273.13
2018-12-10T05:36:37.121Z,100268.75
2018-12-10T05:39:41.579Z,100278.81
2018-12-10T05:42:44.997Z,100284.05
2018-12-10T05:45:48.394Z,100285.36
2018-12-10T05:48:51.674Z,100286.69
2018-12-10T05:51:54.936Z,100287.98
2018-12-10T05:54:58.208Z,100298.91
2018-12-10T05:58:01.532Z,100294.55
2018-12-10T06:01:04.849Z,100298.94
2018-12-10T06:04:08.137Z,100303.31
2018-12-10T06:07:11.721Z,100305.94
2018-12-10T06:10:15.011Z,100306.80
2018-12-10T06:13:19.361Z,100306.82
2018-12-10T06:16:22.702Z,100301.99
2018-12-10T06:19:25.941Z,100310.72
2018-12-10T06:22:29.212Z,100309.42
2018-12-10T06:25:32.509Z,100308.98
2018-12-10T06:28:35.758Z,100314.66
2018-12-10T06:31:39.028Z,100308.53
2018-12-10T06:34:42.283Z,100321.18
2018-12-10T06:37:45.549Z,100310.25
2018-12-10T06:40:48.797Z,100313.74
2018-12-10T06:43:52.012Z,100311.58
2018-12-10T06:46:55.485Z,100311.59
2018-12-10T06:49:58.804Z,100312.88
2018-12-10T06:53:02.059Z,100334.30
2018-12-10T06:56:05.342Z,100355.77
2018-12-10T06:59:08.689Z,100351.42
2018-12-10T07:02:12.194Z,100336.98
2018-12-10T07:05:15.459Z,100346.13
2018-12-10T07:08:18.844Z,100350.50
2018-12-10T07:11:22.064Z,100351.84
2018-12-10T07:14:25.320Z,100343.96
2018-12-10T07:17:28.594Z,100348.77
2018-12-10T07:20:31.833Z,100354.05
2018-12-10T07:23:35.096Z,100368.87
2018-12-10T07:26:38.346Z,100366.70
2018-12-10T07:29:41.760Z,100371.50
2018-12-10T07:32:45.445Z,100366.22
2018-12-10T07:35:48.784Z,100371.03
2018-12-10T07:38:52.101Z,100364.50
2018-12-10T07:41:55.363Z,100376.73
2018-12-10T07:44:58.716Z,100381.50
2018-12-10T07:48:01.965Z,100383.20
2018-12-10T07:51:05.255Z,100383.23
2018-12-10T07:54:08.502Z,100371.41
2018-12-10T07:57:11.844Z,100387.16
2018-12-10T08:00:15.142Z,100379.70
2018-12-10T08:03:18.417Z,100384.55
2018-12-10T08:06:21.632Z,100391.47
2018-12-10T08:09:24.899Z,100383.55
2018-12-10T08:12:28.161Z,100391.05
2018-12-10T08:15:31.465Z,100408.84
2018-12-10T08:18:35.744Z,100410.64
2018-12-10T08:21:38.997Z,100410.71
2018-12-10T08:24:42.566Z,100415.11
2018-12-10T08:27:45.948Z,100419.49
2018-12-10T08:30:49.337Z,100423.02
2018-12-10T08:33:52.993Z,100421.28
2018-12-10T08:36:56.214Z,100438.77
2018-12-10T08:39:59.473Z,100433.57
2018-12-10T08:43:04.700Z,100436.16
2018-12-10T08:46:07.956Z,100436.63
2018-12-10T08:49:11.321Z,100439.31
2018-12-10T08:52:14.569Z,100442.35
2018-12-10T08:55:18.019Z,100439.74
2018-12-10T08:58:21.365Z,100448.11
2018-12-10T09:01:24.637Z,100452.47
2018-12-10T09:04:27.965Z,100441.48
2018-12-10T09:07:31.221Z,100462.02
2018-12-10T09:10:34.828Z,100453.27
2018-12-10T09:13:38.268Z,100445.89
2018-12-10T09:16:41.597Z,100459.02
2018-12-10T09:19:44.832Z,100453.73
2018-12-10T09:22:48.213Z,100448.49
2018-12-10T09:25:51.456Z,100451.58
2018-12-10T09:28:54.708Z,100464.70
2018-12-10T09:31:57.953Z,100465.16
2018-12-10T09:35:01.221Z,100469.48
2018-12-10T09:38:04.525Z,100476.52
2018-12-10T09:41:07.763Z,100494.03
2018-12-10T09:44:11.165Z,100471.70
2018-12-10T09:47:14.404Z,100480.87
2018-12-10T09:50:17.661Z,100481.33
2018-12-10T09:53:21.224Z,100481.28
2018-12-10T09:56:24.492Z,100473.01
2018-12-10T09:59:27.846Z,100474.33
2018-12-10T10:02:31.065Z,100477.88
2018-12-10T10:05:34.362Z,100478.34
2018-12-10T10:08:37.721Z,100473.95
2018-12-10T10:11:40.981Z,100474.00
2018-12-10T10:14:44.228Z,100470.98
2018-12-10T10:17:47.453Z,100465.33
2018-12-10T10:20:50.704Z,100468.30
2018-12-10T10:23:53.916Z,100464.51
2018-12-10T10:26:57.161Z,100471.91
2018-12-10T10:30:00.385Z,100474.47
2018-12-10T10:33:04.118Z,100477.55
2018-12-10T10:36:07.400Z,100479.74
2018-12-10T10:39:10.684Z,100478.88
2018-12-10T10:42:13.928Z,100477.56
2018-12-10T10:45:17.192Z,100487.66
2018-12-10T10:48:20.768Z,100477.55
2018-12-10T10:51:24.025Z,100466.19
2018-12-10T10:54:27.256Z,100463.15
2018-12-10T10:57:31.495Z,100465.73
2018-12-10T11:00:41.642Z,100470.48
2018-12-10T11:03:44.916Z,100472.31
2018-12-10T11:06:48.916Z,100471.02
2018-12-10T11:09:52.152Z,100466.68
2018-12-10T11:12:55.419Z,100473.67
2018-12-10T11:15:58.709Z,100469.27
2018-12-10T11:19:02.114Z,100473.66
2018-12-10T11:22:05.529Z,100471.92
2018-12-10T11:25:09.163Z,100470.63
2018-12-10T11:28:12.654Z,100475.43
2018-12-10T11:31:17.246Z,100474.55
2018-12-10T11:34:20.957Z,100460.97
2018-12-10T11:37:24.256Z,100471.92
2018-12-10T11:40:27.552Z,100471.92
2018-12-10T11:43:30.962Z,100464.94
2018-12-10T11:46:34.281Z,100467.13
2018-12-10T11:49:37.589Z,100473.26
2018-12-10T11:52:40.828Z,100466.25
2018-12-10T11:55:44.222Z,100464.46
2018-12-10T11:58:47.491Z,100468.84
2018-12-10T12:01:50.732Z,100461.85
2018-12-10T12:04:53.963Z,100461.86
2018-12-10T12:07:59.233Z,100466.25
2018-12-10T12:11:02.501Z,100467.57
2018-12-10T12:14:06.042Z,100463.61
2018-12-10T12:17:09.289Z,100458.38
2018-12-10T12:20:12.697Z,100465.32
2018-12-10T12:23:16.081Z,100449.98
2018-12-10T12:26:19.365Z,100452.61
2018-12-10T12:29:22.640Z,100448.25
2018-12-10T12:32:25.873Z,100450.45
2018-12-10T12:35:29.394Z,100452.64
2018-12-10T12:38:33.550Z,100448.30
2018-12-10T12:41:37.377Z,100448.61
2018-12-10T12:44:40.617Z,100457.80
2018-12-10T12:47:43.860Z,100441.64
2018-12-10T12:50:47.080Z,100453.55
2018-12-10T12:53:50.325Z,100457.05
2018-12-10T12:56:53.693Z,100449.16
2018-12-10T12:59:56.981Z,100444.34
2018-12-10T13:03:00.359Z,100444.75
2018-12-10T13:06:07.009Z,100443.00
2018-12-10T13:09:09.328Z,100439.50
2018-12-10T13:12:12.685Z,100448.72
2018-12-10T13:15:15.971Z,100446.95
2018-12-10T13:18:19.227Z,100443.91
2018-12-10T13:21:22.470Z,100443.02
2018-12-10T13:24:25.731Z,100443.91
2018-12-10T13:27:29.069Z,100441.28
2018-12-10T13:30:32.426Z,100437.35
2018-12-10T13:33:35.781Z,100438.20
2018-12-10T13:36:39.016Z,100427.28
2018-12-10T13:39:42.844Z,100425.94
2018-12-10T13:42:46.088Z,100425.94
2018-12-10T13:45:49.374Z,100432.05
2018-12-10T13:48:52.684Z,100430.30
2018-12-10T13:51:55.918Z,100431.17
2018-12-10T13:54:59.193Z,100438.19
2018-12-10T13:58:02.734Z,100429.87
2018-12-10T14:01:06.181Z,100447.85
2018-12-10T14:04:13.713Z,100450.92
2018-12-10T14:07:17.020Z,100445.67
2018-12-10T14:10:20.373Z,100450.49
2018-12-10T14:13:23.588Z,100461.83
2018-12-10T14:16:26.838Z,100458.34
2018-12-10T14:19:30.196Z,100460.09
2018-12-10T14:22:33.607Z,100461.00
2018-12-10T14:25:36.865Z,100465.38
2018-12-10T14:28:40.128Z,100445.31
2018-12-10T14:31:43.365Z,100457.33
2018-12-10T14:34:46.608Z,100467.80
2018-12-10T14:37:49.903Z,100476.94
2018-12-10T14:40:53.177Z,100462.70
2018-12-10T14:43:56.429Z,100479.40
2018-12-10T14:46:59.756Z,100532.86
2018-12-10T14:50:04.422Z,100498.66
2018-12-10T14:53:08.813Z,100485.55
2018-12-10T14:56:13.125Z,100494.22
2018-12-10T14:59:16.388Z,100502.83
2018-12-10T15:02:19.640Z,100505.43
2018-12-10T15:05:22.928Z,100507.19
2018-12-10T15:08:26.214Z,100502.84
2018-12-10T15:11:29.774Z,100508.48
2018-12-10T15:14:33.084Z,100511.08
2018-12-10T15:17:36.615Z,100510.58
2018-12-10T15:20:39.921Z,100507.94
2018-12-10T15:23:43.185Z,100518.43
2018-12-10T15:26:46.420Z,100513.69
2018-12-10T15:29:49.664Z,100521.92
2018-12-10T15:32:52.909Z,100518.92
2018-12-10T15:35:56.268Z,100526.34
2018-12-10T15:38:59.496Z,100540.87
2018-12-10T15:42:02.844Z,100557.48
2018-12-10T15:45:07.472Z,100560.89
2018-12-10T15:48:10.801Z,100535.84
2018-12-10T15:51:14.049Z,100526.61
2018-12-10T15:54:17.398Z,100520.07
2018-12-10T15:57:20.690Z,100520.92
2018-12-10T16:00:24.070Z,100527.95
2018-12-10T16:03:27.488Z,100536.69
2018-12-10T16:06:30.748Z,100535.38
2018-12-10T16:09:34.034Z,100539.77
2018-12-10T16:12:37.436Z,100542.46
2018-12-10T16:15:40.695Z,100549.12
2018-12-10T16:18:43.945Z,100534.97
2018-12-10T16:21:53.836Z,100546.45
2018-12-10T16:24:57.093Z,100551.21
2018-12-10T16:28:00.353Z,100554.41
2018-12-10T16:31:03.759Z,100561.48
2018-12-10T16:34:07.143Z,100562.27
2018-12-10T16:37:10.375Z,100564.02
2018-12-10T16:40:13.645Z,100563.13
2018-12-10T16:43:17.032Z,100569.30
2018-12-10T16:46:20.305Z,100574.50
2018-12-10T16:49:23.545Z,100572.25
2018-12-10T16:52:26.797Z,100571.84
2018-12-10T16:55:36.718Z,100583.66
2018-12-10T16:58:40.097Z,100575.81
2018-12-10T17:01:43.623Z,100577.55
2018-12-10T17:04:46.856Z,100575.36
2018-12-10T17:07:50.440Z,100577.92
2018-12-10T17:10:53.856Z,100575.75
2018-12-10T17:13:57.344Z,100582.31
2018-12-10T17:17:00.601Z,100572.25
2018-12-10T17:20:05.666Z,100569.13
2018-12-10T17:23:08.921Z,100578.81
2018-12-10T17:26:12.173Z,100584.42
2018-12-10T17:29:15.469Z,100581.39
2018-12-10T17:32:18.722Z,100579.30
2018-12-10T17:35:21.965Z,100577.08
2018-12-10T17:38:25.196Z,100587.56
2018-12-10T17:41:28.472Z,100578.73
2018-12-10T17:44:31.838Z,100589.71
2018-12-10T17:47:35.150Z,100589.23
2018-12-10T17:50:38.566Z,100582.61
2018-12-10T17:53:42.385Z,100588.80
2018-12-10T17:56:45.812Z,100597.13
2018-12-10T17:59:49.297Z,100598.44
2018-12-10T18:02:52.565Z,100599.75
2018-12-10T18:05:55.819Z,100601.07
2018-12-10T18:08:59.069Z,100593.23
2018-12-10T18:12:02.346Z,100603.80
2018-12-10T18:15:07.129Z,100606.38
2018-12-10T18:18:10.613Z,100616.86
2018-12-10T18:21:13.949Z,100621.72
2018-12-10T18:24:17.332Z,100615.59
2018-12-10T18:27:20.565Z,100612.52
2018-12-10T18:30:23.833Z,100617.75
2018-12-10T18:33:27.466Z,100616.39
2018-12-10T18:36:30.785Z,100614.69
2018-12-10T18:39:34.021Z,100609.87
2018-12-10T18:42:37.264Z,100612.94
2018-12-10T18:45:40.545Z,100613.33
2018-12-10T18:48:43.833Z,100616.86
2018-12-10T18:51:47.123Z,100625.16
2018-12-10T18:54:50.445Z,100615.07
2018-12-10T18:57:53.729Z,100614.13
2018-12-10T19:00:56.976Z,100614.59
2018-12-10T19:04:00.233Z,100616.36
2018-12-10T19:07:03.576Z,100606.80
2018-12-10T19:10:08.801Z,100602.38
2018-12-10T19:13:12.137Z,100594.02
2018-12-10T19:16:15.670Z,100600.98
2018-12-10T19:19:18.898Z,100609.66
2018-12-10T19:22:22.388Z,100606.66
2018-12-10T19:25:25.854Z,100620.20
2018-12-10T19:28:29.080Z,100623.29
2018-12-10T19:31:32.334Z,100627.63
2018-12-10T19:34:35.557Z,100627.69
2018-12-10T19:37:38.818Z,100629.50
2018-12-10T19:40:42.098Z,100626.84
2018-12-10T19:43:45.356Z,100620.19
2018-12-10T19:46:48.629Z,100618.89
2018-12-10T19:49:51.883Z,100623.31
2018-12-10T19:52:55.196Z,100622.42
2018-12-10T19:55:58.493Z,100617.64
2018-12-10T19:59:01.823Z,100618.86
2018-12-10T20:02:05.467Z,100614.11
2018-12-10T20:05:09.811Z,100619.78
2018-12-10T20:08:14.555Z,100622.38
2018-12-10T20:11:17.942Z,100623.70
2018-12-10T20:14:21.344Z,100622.83
2018-12-10T20:17:25.435Z,100621.09
2018-12-10T20:20:29.007Z,100625.88
2018-12-10T20:23:32.349Z,100629.36
2018-12-10T20:26:35.649Z,100638.97
2018-12-10T20:29:39.037Z,100638.52
2018-12-10T20:32:42.672Z,100624.54
2018-12-10T20:35:47.159Z,100623.26
2018-12-10T20:38:50.486Z,100628.03
2018-12-10T20:41:54.060Z,100628.53
2018-12-10T20:44:57.332Z,100625.86
2018-12-10T20:48:01.277Z,100616.13
2018-12-10T20:51:04.554Z,100618.37
2018-12-10T20:54:08.163Z,100630.17
2018-12-10T20:57:11.477Z,100631.98
2018-12-10T21:00:15.051Z,100630.61
2018-12-10T21:03:18.336Z,100637.58
2018-12-10T21:06:27.341Z,100632.81
2018-12-10T21:09:30.656Z,100630.19
2018-12-10T21:12:33.905Z,100638.91
2018-12-10T21:15:37.400Z,100635.78
2018-12-10T21:18:40.709Z,100637.52
2018-12-10T21:21:43.945Z,100633.09
2018-12-10T21:24:47.414Z,100637.50
2018-12-10T21:27:50.668Z,100638.75
2018-12-10T21:30:53.953Z,100634.06
2018-12-10T21:33:57.165Z,100637.58
2018-12-10T21:37:00.429Z,100630.94
2018-12-10T21:40:04.105Z,100636.58
2018-12-10T21:43:07.485Z,100641.44
2018-12-10T21:46:11.596Z,100641.50
2018-12-10T21:49:16.502Z,100651.91
2018-12-10T21:52:19.914Z,100656.24
2018-12-10T21:55:23.433Z,100651.39
2018-12-10T21:58:26.899Z,100644.88
2018-12-10T22:01:30.290Z,100641.82
2018-12-10T22:04:33.592Z,100634.82
2018-12-10T22:07:36.884Z,100628.30
2018-12-10T22:10:40.141Z,100633.13
2018-12-10T22:13:43.372Z,100644.88
2018-12-10T22:16:46.649Z,100645.44
2018-12-10T22:19:50.021Z,100657.73
2018-12-10T22:22:53.287Z,100655.59
2018-12-10T22:25:56.517Z,100658.65
2018-12-10T22:28:59.768Z,100645.47
2018-12-10T22:32:03.045Z,100655.11
2018-12-10T22:35:06.645Z,100652.47
2018-12-10T22:38:10.004Z,100657.66
2018-12-10T22:41:13.215Z,100654.05
2018-12-10T22:44:16.462Z,100655.02
2018-12-10T22:47:19.700Z,100654.50
2018-12-10T22:50:22.966Z,100656.70
2018-12-10T22:53:26.273Z,100649.72
2018-12-10T22:56:29.500Z,100647.58
2018-12-10T22:59:32.793Z,100641.92
2018-12-10T23:02:36.024Z,100640.94
2018-12-10T23:05:39.405Z,100645.77
2018-12-10T23:08:44.709Z,100643.61
2018-12-10T23:11:47.968Z,100645.69
2018-12-10T23:14:51.256Z,100644.48
2018-12-10T23:17:54.485Z,100649.30
2018-12-10T23:20:59.336Z,100651.09
2018-12-10T23:24:03.466Z,100665.02
2018-12-10T23:27:06.852Z,100673.79
2018-12-10T23:30:10.289Z,100671.22
2018-12-10T23:33:13.560Z,100672.45
2018-12-10T23:36:16.892Z,100668.91
2018-12-10T23:39:20.161Z,100675.44
2018-12-10T23:42:23.477Z,100678.04
2018-12-10T23:45:26.728Z,100673.30
2018-12-10T23:48:29.977Z,100671.14
2018-12-10T23:51:33.259Z,100668.88
2018-12-10T23:54:36.508Z,100666.73
2018-12-10T23:57:39.770Z,100664.54
